createdAt,value
2022-12-31T00:02:01.744Z,76.78
2022-12-31T00:04:34.199Z,76.92
2022-12-31T00:07:06.871Z,76.77
2022-12-31T00:09:39.424Z,76.72
2022-12-31T00:12:11.935Z,76.36
2022-12-31T00:14:44.689Z,76.36
2022-12-31T00:17:17.418Z,76.17
2022-12-31T00:19:50.164Z,76.07
2022-12-31T00:22:22.621Z,76.09
2022-12-31T00:24:55.086Z,76.25
2022-12-31T00:27:27.748Z,76.39
2022-12-31T00:30:04.516Z,76.32
2022-12-31T00:32:39.803Z,76.54
2022-12-31T00:35:12.491Z,76.61
2022-12-31T00:37:45.117Z,76.91
2022-12-31T00:40:17.815Z,77.03
2022-12-31T00:42:50.388Z,77.13
2022-12-31T00:45:22.972Z,77.12
2022-12-31T00:47:55.452Z,77.09
2022-12-31T00:50:28.137Z,77.09
2022-12-31T00:53:01.195Z,77.02
2022-12-31T00:55:34.105Z,76.80
2022-12-31T00:58:06.988Z,76.69
2022-12-31T01:00:41.016Z,76.58
2022-12-31T01:03:13.804Z,76.57
2022-12-31T01:05:46.693Z,76.48
2022-12-31T01:08:20.027Z,76.33
2022-12-31T01:11:11.559Z,76.21
2022-12-31T01:13:44.979Z,76.39
2022-12-31T01:16:18.391Z,76.32
2022-12-31T01:18:51.371Z,76.39
2022-12-31T01:21:24.738Z,76.46
2022-12-31T01:23:57.631Z,76.43
2022-12-31T01:26:30.570Z,76.84
2022-12-31T01:29:03.161Z,76.57
2022-12-31T01:31:37.066Z,76.40
2022-12-31T01:34:10.425Z,76.53
2022-12-31T01:36:43.296Z,76.37
2022-12-31T01:39:16.440Z,76.21
2022-12-31T01:41:49.745Z,76.37
2022-12-31T01:44:31.351Z,76.37
2022-12-31T01:47:06.115Z,76.38
2022-12-31T01:49:52.737Z,76.39
2022-12-31T01:52:30.290Z,76.38
2022-12-31T01:55:18.109Z,76.59
2022-12-31T01:57:56.515Z,76.69
2022-12-31T02:00:29.270Z,77.55
2022-12-31T02:03:02.585Z,77.19
2022-12-31T02:05:52.470Z,77.21
2022-12-31T02:08:25.794Z,77.36
2022-12-31T02:10:58.951Z,77.53
2022-12-31T02:13:32.092Z,77.47
2022-12-31T02:16:19.486Z,77.57
2022-12-31T02:19:20.003Z,77.58
2022-12-31T02:22:19.555Z,77.56
2022-12-31T02:25:26.367Z,77.47
2022-12-31T02:28:14.881Z,77.42
2022-12-31T02:30:52.204Z,77.35
2022-12-31T02:33:41.095Z,77.13
2022-12-31T02:36:26.095Z,77.29
2022-12-31T02:39:00.522Z,77.22
2022-12-31T02:41:51.986Z,77.35
2022-12-31T02:44:30.659Z,77.45
2022-12-31T02:47:12.359Z,77.47
2022-12-31T02:49:56.248Z,77.62
2022-12-31T02:52:31.117Z,77.70
2022-12-31T02:55:09.614Z,77.79
2022-12-31T02:58:13.329Z,77.95
2022-12-31T03:01:14.721Z,77.95
2022-12-31T03:03:47.838Z,77.78
2022-12-31T03:06:20.530Z,77.72
2022-12-31T03:09:14.984Z,77.63
2022-12-31T03:12:07.107Z,77.68
2022-12-31T03:14:39.896Z,77.65
2022-12-31T03:17:12.820Z,77.68
2022-12-31T03:20:03.669Z,77.61
2022-12-31T03:22:38.826Z,77.56
2022-12-31T03:25:33.797Z,77.49
2022-12-31T03:28:15.560Z,77.56
2022-12-31T03:30:51.981Z,77.54
2022-12-31T03:33:25.244Z,77.67
2022-12-31T03:35:58.190Z,77.58
2022-12-31T03:38:30.877Z,77.79
2022-12-31T03:41:04.369Z,77.98
2022-12-31T03:43:37.121Z,78.00
2022-12-31T03:46:10.231Z,78.06
2022-12-31T03:48:43.319Z,78.13
2022-12-31T03:51:17.195Z,78.21
2022-12-31T03:53:50.401Z,78.24
2022-12-31T03:56:23.190Z,78.30
2022-12-31T03:58:55.900Z,78.18
2022-12-31T04:01:28.949Z,78.01
2022-12-31T04:04:02.461Z,78.08
2022-12-31T04:06:35.111Z,77.98
2022-12-31T04:09:07.974Z,77.85
2022-12-31T04:11:40.761Z,77.70
2022-12-31T04:14:13.870Z,77.70
2022-12-31T04:16:47.311Z,77.52
2022-12-31T04:19:20.234Z,77.67
2022-12-31T04:21:52.987Z,77.77
2022-12-31T04:24:26.083Z,77.79
2022-12-31T04:27:05.347Z,77.89
2022-12-31T04:29:41.883Z,78.07
2022-12-31T04:32:15.050Z,78.32
2022-12-31T04:34:48.221Z,78.57
2022-12-31T04:37:20.819Z,78.67
2022-12-31T04:39:53.578Z,78.77
2022-12-31T04:42:26.188Z,79.03
2022-12-31T04:44:59.240Z,79.02
2022-12-31T04:47:32.385Z,78.77
2022-12-31T04:50:05.533Z,79.01
2022-12-31T04:52:42.648Z,78.88
2022-12-31T04:55:17.791Z,78.69
2022-12-31T04:57:51.297Z,78.55
2022-12-31T05:00:24.987Z,78.39
2022-12-31T05:02:58.130Z,78.18
2022-12-31T05:05:31.373Z,78.16
2022-12-31T05:08:04.329Z,78.05
2022-12-31T05:10:37.437Z,78.40
2022-12-31T05:13:10.547Z,78.30
2022-12-31T05:15:43.960Z,78.08
2022-12-31T05:18:17.272Z,77.99
2022-12-31T05:20:50.654Z,78.22
2022-12-31T05:23:23.819Z,78.50
2022-12-31T05:25:56.671Z,78.31
2022-12-31T05:28:29.631Z,78.46
2022-12-31T05:31:03.016Z,78.44
2022-12-31T05:33:35.965Z,78.57
2022-12-31T05:36:09.432Z,78.75
2022-12-31T05:38:42.500Z,78.87
2022-12-31T05:41:15.386Z,78.90
2022-12-31T05:43:48.309Z,78.91
2022-12-31T05:46:21.469Z,78.78
2022-12-31T05:48:54.342Z,78.77
2022-12-31T05:51:27.310Z,78.73
2022-12-31T05:54:00.447Z,78.70
2022-12-31T05:56:33.425Z,78.91
2022-12-31T05:59:06.520Z,78.50
2022-12-31T06:01:39.874Z,78.44
2022-12-31T06:04:13.249Z,78.64
2022-12-31T06:06:46.596Z,78.76
2022-12-31T06:09:20.602Z,78.66
2022-12-31T06:11:53.898Z,78.87
2022-12-31T06:14:27.146Z,78.85
2022-12-31T06:17:00.468Z,78.93
2022-12-31T06:19:33.801Z,79.04
2022-12-31T06:22:07.451Z,79.14
2022-12-31T06:24:40.092Z,79.27
2022-12-31T06:27:12.879Z,79.19
2022-12-31T06:29:46.094Z,78.99
2022-12-31T06:32:19.153Z,79.07
2022-12-31T06:34:51.748Z,79.12
2022-12-31T06:37:24.635Z,78.87
2022-12-31T06:39:57.263Z,78.60
2022-12-31T06:42:33.656Z,78.49
2022-12-31T06:45:06.336Z,78.33
2022-12-31T06:47:39.227Z,78.24
2022-12-31T06:50:12.184Z,78.23
2022-12-31T06:52:46.322Z,78.25
2022-12-31T06:55:20.268Z,79.03
2022-12-31T06:57:53.725Z,81.09
2022-12-31T07:00:27.176Z,80.61
2022-12-31T07:03:17.382Z,79.79
2022-12-31T07:05:59.218Z,79.60
2022-12-31T07:09:01.108Z,79.43
2022-12-31T07:12:04.093Z,79.74
2022-12-31T07:14:51.404Z,79.75
2022-12-31T07:17:48.184Z,79.87
2022-12-31T07:20:22.768Z,79.93
2022-12-31T07:22:55.951Z,80.08
2022-12-31T07:25:30.842Z,80.12
2022-12-31T07:28:26.925Z,80.01
2022-12-31T07:31:18.074Z,79.82
2022-12-31T07:34:09.141Z,79.56
2022-12-31T07:36:50.093Z,79.64
2022-12-31T07:39:44.680Z,79.90
2022-12-31T07:42:26.061Z,80.25
2022-12-31T07:45:17.397Z,80.52
2022-12-31T07:47:53.562Z,80.68
2022-12-31T07:50:28.922Z,80.29
2022-12-31T07:53:02.318Z,79.85
2022-12-31T07:55:35.811Z,80.78
2022-12-31T07:58:44.663Z,80.53
2022-12-31T08:01:30.183Z,79.60
2022-12-31T08:04:08.952Z,79.34
2022-12-31T08:07:19.267Z,79.69
2022-12-31T08:10:17.668Z,79.75
2022-12-31T08:12:57.656Z,79.73
2022-12-31T08:15:30.916Z,79.66
2022-12-31T08:18:03.929Z,79.44
2022-12-31T08:20:55.047Z,79.29
2022-12-31T08:23:53.738Z,78.91
2022-12-31T08:27:11.863Z,78.84
2022-12-31T08:29:51.757Z,79.18
2022-12-31T08:32:49.328Z,80.15
2022-12-31T08:36:07.102Z,80.36
2022-12-31T08:39:07.961Z,80.06
2022-12-31T08:41:49.125Z,80.15
2022-12-31T08:44:39.754Z,79.94
2022-12-31T08:47:46.359Z,80.07
2022-12-31T08:50:20.831Z,80.52
2022-12-31T08:52:54.136Z,80.57
2022-12-31T08:55:28.498Z,80.65
2022-12-31T08:58:06.675Z,81.05
2022-12-31T09:00:41.176Z,80.91
2022-12-31T09:03:31.348Z,81.29
2022-12-31T09:06:29.842Z,81.64
2022-12-31T09:09:09.696Z,82.90
2022-12-31T09:12:11.549Z,83.15
2022-12-31T09:14:47.673Z,83.22
2022-12-31T09:17:28.722Z,82.09
2022-12-31T09:20:01.968Z,81.75
2022-12-31T09:22:35.307Z,82.01
2022-12-31T09:25:08.754Z,82.17
2022-12-31T09:27:56.001Z,82.60
2022-12-31T09:30:30.364Z,82.65
2022-12-31T09:33:07.882Z,82.84
2022-12-31T09:35:58.540Z,83.37
2022-12-31T09:38:43.685Z,82.92
2022-12-31T09:41:28.505Z,81.91
2022-12-31T09:44:22.373Z,81.21
2022-12-31T09:47:30.266Z,81.15
2022-12-31T09:50:22.961Z,81.27
2022-12-31T09:53:19.498Z,80.90
2022-12-31T09:56:04.441Z,81.35
2022-12-31T09:58:54.229Z,80.63
2022-12-31T10:01:40.471Z,82.02
2022-12-31T10:04:19.046Z,81.22
2022-12-31T10:07:14.383Z,80.84
2022-12-31T10:09:55.812Z,81.42
2022-12-31T10:12:39.216Z,82.58
2022-12-31T10:15:36.167Z,82.01
2022-12-31T10:18:20.485Z,82.95
2022-12-31T10:21:18.988Z,81.27
2022-12-31T10:23:54.189Z,81.30
2022-12-31T10:26:54.578Z,81.16
2022-12-31T10:29:29.802Z,80.88
2022-12-31T10:32:02.501Z,80.52
2022-12-31T10:34:41.527Z,80.77
2022-12-31T10:37:21.664Z,81.69
2022-12-31T10:40:18.916Z,81.62
2022-12-31T10:43:38.848Z,81.06
2022-12-31T10:46:11.300Z,81.12
2022-12-31T10:48:49.673Z,81.39
2022-12-31T10:51:42.479Z,80.94
2022-12-31T10:54:35.239Z,80.64
2022-12-31T10:57:19.591Z,80.77
2022-12-31T11:00:17.015Z,80.30
2022-12-31T11:02:54.628Z,80.19
2022-12-31T11:05:58.119Z,80.78
2022-12-31T11:08:49.485Z,80.87
2022-12-31T11:11:56.098Z,80.28
2022-12-31T11:14:47.079Z,80.37
2022-12-31T11:17:22.455Z,79.96
2022-12-31T11:20:39.974Z,79.83
2022-12-31T11:23:41.844Z,79.74
2022-12-31T11:26:41.937Z,79.46
2022-12-31T11:29:41.500Z,79.58
2022-12-31T11:32:29.281Z,79.63
2022-12-31T11:35:22.720Z,79.63
2022-12-31T11:38:17.715Z,79.54
2022-12-31T11:41:21.376Z,79.50
2022-12-31T11:43:59.732Z,79.85
2022-12-31T11:47:04.805Z,79.78
2022-12-31T11:50:01.269Z,79.61
2022-12-31T11:52:51.827Z,79.38
2022-12-31T11:55:53.455Z,79.29
2022-12-31T11:58:29.197Z,79.32
2022-12-31T12:01:16.266Z,79.24
2022-12-31T12:03:50.188Z,79.19
2022-12-31T12:06:29.361Z,79.41
2022-12-31T12:09:20.873Z,79.20
2022-12-31T12:12:02.553Z,79.07
2022-12-31T12:14:39.274Z,78.96
2022-12-31T12:17:18.731Z,78.93
2022-12-31T12:19:57.293Z,78.97
2022-12-31T12:22:31.950Z,78.79
2022-12-31T12:25:18.537Z,78.74
2022-12-31T12:27:51.966Z,78.89
2022-12-31T12:30:27.751Z,78.74
2022-12-31T12:33:05.270Z,78.90
2022-12-31T12:35:39.900Z,78.59
2022-12-31T12:38:42.495Z,78.62
2022-12-31T12:41:28.666Z,78.55
2022-12-31T12:44:17.324Z,78.44
2022-12-31T12:46:51.829Z,78.45
2022-12-31T12:49:29.697Z,78.51
2022-12-31T12:52:24.334Z,78.30
2022-12-31T12:55:36.042Z,78.50
2022-12-31T12:58:28.881Z,78.32
2022-12-31T13:01:21.487Z,78.30
2022-12-31T13:04:34.978Z,78.34
2022-12-31T13:07:37.138Z,78.40
2022-12-31T13:10:21.651Z,78.44
2022-12-31T13:13:26.084Z,78.46
2022-12-31T13:16:19.202Z,78.42
2022-12-31T13:19:00.784Z,78.46
2022-12-31T13:21:56.062Z,78.60
2022-12-31T13:24:34.240Z,78.30
2022-12-31T13:27:29.878Z,78.55
2022-12-31T13:30:08.533Z,78.56
2022-12-31T13:32:48.152Z,78.54
2022-12-31T13:35:36.617Z,78.38
2022-12-31T13:38:24.816Z,78.42
2022-12-31T13:41:11.314Z,79.26
2022-12-31T13:44:15.797Z,79.44
2022-12-31T13:47:04.610Z,79.28
2022-12-31T13:49:47.082Z,79.24
2022-12-31T13:52:29.730Z,78.88
2022-12-31T13:55:21.623Z,79.04
2022-12-31T13:57:59.228Z,79.14
2022-12-31T14:00:49.677Z,78.80
2022-12-31T14:03:41.231Z,78.77
2022-12-31T14:06:27.671Z,78.65
2022-12-31T14:09:01.171Z,78.90
2022-12-31T14:11:56.851Z,79.04
2022-12-31T14:14:43.857Z,78.96
2022-12-31T14:17:39.598Z,79.02
2022-12-31T14:20:47.995Z,79.00
2022-12-31T14:23:49.675Z,79.43
2022-12-31T14:26:27.928Z,79.22
2022-12-31T14:29:16.302Z,79.28
2022-12-31T14:31:52.283Z,79.20
2022-12-31T14:34:52.503Z,78.92
2022-12-31T14:37:43.274Z,79.23
2022-12-31T14:40:56.977Z,79.76
2022-12-31T14:44:06.295Z,79.30
2022-12-31T14:47:06.000Z,79.29
2022-12-31T14:49:58.983Z,79.70
2022-12-31T14:52:36.410Z,80.07
2022-12-31T14:55:24.527Z,80.06
2022-12-31T14:58:26.966Z,79.57
2022-12-31T15:01:20.274Z,79.34
2022-12-31T15:03:53.096Z,79.45
2022-12-31T15:06:52.589Z,80.57
2022-12-31T15:09:46.578Z,81.04
2022-12-31T15:12:40.018Z,80.55
2022-12-31T15:15:26.754Z,80.67
2022-12-31T15:18:16.857Z,81.13
2022-12-31T15:21:09.154Z,81.32
2022-12-31T15:23:44.338Z,81.63
2022-12-31T15:26:32.030Z,82.15
2022-12-31T15:29:08.478Z,82.60
2022-12-31T15:31:49.262Z,82.79
2022-12-31T15:34:36.354Z,81.99
2022-12-31T15:37:31.403Z,81.68
2022-12-31T15:40:30.169Z,83.02
2022-12-31T15:43:14.199Z,83.22
2022-12-31T15:45:48.807Z,82.43
2022-12-31T15:48:43.705Z,83.04
2022-12-31T15:51:26.344Z,82.88
2022-12-31T15:54:01.495Z,82.35
2022-12-31T15:56:38.952Z,82.48
2022-12-31T15:59:18.283Z,81.67
2022-12-31T16:01:52.015Z,81.11
2022-12-31T16:04:28.285Z,80.83
2022-12-31T16:07:05.768Z,81.44
2022-12-31T16:09:39.240Z,81.98
2022-12-31T16:12:25.400Z,81.26
2022-12-31T16:15:04.351Z,80.95
2022-12-31T16:17:40.393Z,81.32
2022-12-31T16:20:30.844Z,81.39
2022-12-31T16:23:19.908Z,81.44
2022-12-31T16:25:55.267Z,81.54
2022-12-31T16:28:35.260Z,81.60
2022-12-31T16:31:10.462Z,82.93
2022-12-31T16:33:43.717Z,82.74
2022-12-31T16:36:24.306Z,82.03
2022-12-31T16:39:15.832Z,81.72
2022-12-31T16:41:48.702Z,82.74
2022-12-31T16:44:32.306Z,83.26
2022-12-31T16:47:07.986Z,83.03
2022-12-31T16:49:44.104Z,81.98
2022-12-31T16:52:51.642Z,81.67
2022-12-31T16:55:30.739Z,83.13
2022-12-31T16:58:21.686Z,83.19
2022-12-31T17:00:55.267Z,84.04
2022-12-31T17:03:30.643Z,83.21
2022-12-31T17:06:23.105Z,83.87
2022-12-31T17:09:14.478Z,84.33
2022-12-31T17:11:50.877Z,85.18
2022-12-31T17:14:29.252Z,84.50
2022-12-31T17:17:07.996Z,83.22
2022-12-31T17:19:46.010Z,82.82
2022-12-31T17:22:34.579Z,82.99
2022-12-31T17:25:34.897Z,82.74
2022-12-31T17:28:23.251Z,82.35
2022-12-31T17:31:00.609Z,81.81
2022-12-31T17:33:34.815Z,81.95
2022-12-31T17:36:27.424Z,82.26
2022-12-31T17:39:21.258Z,83.61
2022-12-31T17:41:57.923Z,85.08
2022-12-31T17:44:31.459Z,84.48
2022-12-31T17:47:06.540Z,83.29
2022-12-31T17:49:39.704Z,82.37
2022-12-31T17:52:16.915Z,81.37
2022-12-31T17:54:50.251Z,80.90
2022-12-31T17:57:29.251Z,80.43
2022-12-31T18:00:02.331Z,80.01
2022-12-31T18:02:46.682Z,79.86
2022-12-31T18:05:22.719Z,79.91
2022-12-31T18:07:56.462Z,80.77
2022-12-31T18:10:31.955Z,82.73
2022-12-31T18:13:10.553Z,85.41
2022-12-31T18:15:43.493Z,88.16
2022-12-31T18:18:33.199Z,89.84
2022-12-31T18:21:36.657Z,89.44
2022-12-31T18:24:15.598Z,89.63
2022-12-31T18:26:48.851Z,89.90
2022-12-31T18:29:22.104Z,88.35
2022-12-31T18:31:56.512Z,88.32
2022-12-31T18:34:29.535Z,87.49
2022-12-31T18:37:02.898Z,88.51
2022-12-31T18:39:35.601Z,89.37
2022-12-31T18:42:08.251Z,88.69
2022-12-31T18:44:41.227Z,87.14
2022-12-31T18:47:19.178Z,85.86
2022-12-31T18:49:53.129Z,84.59
2022-12-31T18:52:26.007Z,83.72
2022-12-31T18:54:58.858Z,83.11
2022-12-31T18:57:31.903Z,82.55
2022-12-31T19:00:04.795Z,82.32
2022-12-31T19:02:37.625Z,82.06
2022-12-31T19:05:27.898Z,81.85
2022-12-31T19:08:01.328Z,81.51
2022-12-31T19:10:35.578Z,81.20
2022-12-31T19:13:08.475Z,80.20
2022-12-31T19:15:49.742Z,80.01
2022-12-31T19:18:22.722Z,80.35
2022-12-31T19:20:56.045Z,80.51
2022-12-31T19:23:29.114Z,80.79
2022-12-31T19:26:02.072Z,80.93
2022-12-31T19:28:35.166Z,81.10
2022-12-31T19:31:08.345Z,81.09
2022-12-31T19:33:41.678Z,81.18
2022-12-31T19:36:26.388Z,80.89
2022-12-31T19:38:59.215Z,80.93
2022-12-31T19:41:32.312Z,80.73
2022-12-31T19:44:05.563Z,80.89
2022-12-31T19:46:38.471Z,80.89
2022-12-31T19:49:14.040Z,82.13
2022-12-31T19:51:47.099Z,81.70
2022-12-31T19:54:20.153Z,81.59
2022-12-31T19:56:53.350Z,81.51
2022-12-31T19:59:26.950Z,81.43
2022-12-31T20:02:01.116Z,81.48
2022-12-31T20:04:34.074Z,81.38
2022-12-31T20:07:07.019Z,81.53
2022-12-31T20:09:39.925Z,81.62
2022-12-31T20:12:13.051Z,81.47
2022-12-31T20:14:46.160Z,81.29
2022-12-31T20:17:19.502Z,81.25
2022-12-31T20:19:52.786Z,81.31
2022-12-31T20:22:25.505Z,81.24
2022-12-31T20:24:58.635Z,81.14
2022-12-31T20:27:31.609Z,81.40
2022-12-31T20:30:04.458Z,81.28
2022-12-31T20:32:37.645Z,81.32
2022-12-31T20:35:10.793Z,81.36
2022-12-31T20:37:44.002Z,81.14
2022-12-31T20:40:17.444Z,80.93
2022-12-31T20:42:50.455Z,81.17
2022-12-31T20:45:23.464Z,81.22
2022-12-31T20:47:56.915Z,81.05
2022-12-31T20:50:30.251Z,81.14
2022-12-31T20:53:03.175Z,81.14
2022-12-31T20:55:38.612Z,81.14
2022-12-31T20:58:11.146Z,81.33
2022-12-31T21:00:43.833Z,81.36
2022-12-31T21:03:53.531Z,81.44
2022-12-31T21:06:13.651Z,81.40
2022-12-31T21:08:46.806Z,81.45
2022-12-31T21:11:37.951Z,81.28
2022-12-31T21:14:10.664Z,81.15
2022-12-31T21:16:43.276Z,81.00
2022-12-31T21:19:15.826Z,81.25
2022-12-31T21:21:48.700Z,81.12
2022-12-31T21:24:24.095Z,81.29
2022-12-31T21:27:00.294Z,81.04
2022-12-31T21:29:34.891Z,80.91
2022-12-31T21:32:08.625Z,80.91
2022-12-31T21:34:41.419Z,80.99
2022-12-31T21:37:14.221Z,81.17
2022-12-31T21:39:46.836Z,81.17
2022-12-31T21:42:19.672Z,81.25
2022-12-31T21:44:52.952Z,81.21
2022-12-31T21:47:47.606Z,81.07
2022-12-31T21:50:21.170Z,81.02
2022-12-31T21:52:53.687Z,81.03
2022-12-31T21:55:44.985Z,81.03
2022-12-31T21:58:27.535Z,81.10
2022-12-31T22:01:21.462Z,81.03
2022-12-31T22:03:54.328Z,80.64
2022-12-31T22:06:27.678Z,80.54
2022-12-31T22:09:00.548Z,80.64
2022-12-31T22:11:33.954Z,80.77
2022-12-31T22:14:07.043Z,81.10
2022-12-31T22:16:40.253Z,80.97
2022-12-31T22:19:13.379Z,80.88
2022-12-31T22:21:46.546Z,80.97
2022-12-31T22:24:19.492Z,81.04
2022-12-31T22:26:54.506Z,81.27
2022-12-31T22:29:27.477Z,81.22
2022-12-31T22:32:01.434Z,81.19
2022-12-31T22:34:34.483Z,81.35
2022-12-31T22:37:27.569Z,81.34
2022-12-31T22:40:01.992Z,81.29
2022-12-31T22:42:35.100Z,81.41
2022-12-31T22:45:08.993Z,81.19
2022-12-31T22:47:42.245Z,80.88
2022-12-31T22:50:15.140Z,80.92
2022-12-31T22:52:48.098Z,81.00
2022-12-31T22:55:21.271Z,80.84
2022-12-31T22:57:54.706Z,80.74
2022-12-31T23:00:41.434Z,81.00
2022-12-31T23:03:14.785Z,80.84
2022-12-31T23:05:51.909Z,80.70
2022-12-31T23:08:25.325Z,80.88
2022-12-31T23:11:00.905Z,80.92
2022-12-31T23:13:57.954Z,80.91
2022-12-31T23:16:50.846Z,80.88
2022-12-31T23:19:42.263Z,80.81
2022-12-31T23:22:33.039Z,80.97
2022-12-31T23:25:05.826Z,80.88
2022-12-31T23:27:38.804Z,80.67
2022-12-31T23:30:12.196Z,80.71
2022-12-31T23:32:44.812Z,80.53
2022-12-31T23:35:18.224Z,80.63
2022-12-31T23:37:50.908Z,80.49
2022-12-31T23:40:24.215Z,80.31
2022-12-31T23:42:57.067Z,80.24
2022-12-31T23:45:33.251Z,80.65
2022-12-31T23:48:06.689Z,80.45
2022-12-31T23:50:41.771Z,80.51
2022-12-31T23:53:14.345Z,80.56
2022-12-31T23:55:47.070Z,80.86
2022-12-31T23:58:20.075Z,80.87
